createdAt,value
2022-07-28T00:00:49.229Z,59.90
2022-07-28T00:03:17.612Z,59.90
2022-07-28T00:05:47.167Z,59.90
2022-07-28T00:08:18.273Z,59.90
2022-07-28T00:10:48.014Z,60.00
2022-07-28T00:13:16.354Z,60.00
2022-07-28T00:15:44.700Z,59.90
2022-07-28T00:18:13.282Z,60.00
2022-07-28T00:20:41.574Z,60.00
2022-07-28T00:23:09.891Z,60.00
2022-07-28T00:25:38.272Z,60.00
2022-07-28T00:28:08.493Z,60.00
2022-07-28T00:30:36.843Z,60.10
2022-07-28T00:33:05.273Z,60.10
2022-07-28T00:35:33.715Z,60.00
2022-07-28T00:38:02.134Z,60.00
2022-07-28T00:40:44.659Z,59.90
2022-07-28T00:43:14.516Z,59.80
2022-07-28T00:45:42.972Z,59.80
2022-07-28T00:48:11.371Z,59.90
2022-07-28T00:54:20.853Z,59.90
2022-07-28T00:56:49.161Z,60.00
2022-07-28T00:59:18.911Z,60.00
2022-07-28T01:01:49.121Z,60.00
2022-07-28T01:04:18.433Z,60.00
2022-07-28T01:07:09.106Z,60.20
2022-07-28T01:09:52.523Z,60.20
2022-07-28T01:12:35.394Z,60.20
2022-07-28T01:15:15.203Z,60.10
2022-07-28T01:17:49.628Z,60.20
2022-07-28T01:20:24.183Z,60.30
2022-07-28T01:23:06.735Z,60.40
2022-07-28T01:25:48.066Z,60.30
2022-07-28T01:28:27.886Z,60.30
2022-07-28T01:31:00.918Z,60.30
2022-07-28T01:33:35.178Z,60.30
2022-07-28T01:36:07.920Z,60.50
2022-07-28T01:38:38.351Z,60.40
2022-07-28T01:41:10.289Z,60.50
2022-07-28T01:43:43.014Z,60.50
2022-07-28T01:46:14.066Z,60.50
2022-07-28T01:48:45.410Z,60.70
2022-07-28T01:51:15.489Z,60.70
2022-07-28T01:53:46.214Z,60.60
2022-07-28T01:56:16.143Z,60.90
2022-07-28T01:58:45.385Z,60.70
2022-07-28T02:01:17.214Z,60.40
2022-07-28T02:03:47.001Z,60.60
2022-07-28T02:06:17.399Z,60.60
2022-07-28T02:08:47.326Z,60.50
2022-07-28T02:11:33.289Z,60.80
2022-07-28T02:14:02.261Z,60.50
2022-07-28T02:16:33.324Z,60.80
2022-07-28T02:19:03.632Z,60.80
2022-07-28T02:21:33.627Z,61.00
2022-07-28T02:24:06.498Z,61.00
2022-07-28T02:26:38.753Z,60.90
2022-07-28T02:29:18.474Z,61.00
2022-07-28T02:32:05.373Z,61.00
2022-07-28T02:34:54.714Z,61.10
2022-07-28T02:37:25.077Z,60.90
2022-07-28T02:40:00.579Z,61.10
2022-07-28T02:42:34.559Z,61.10
2022-07-28T02:45:06.035Z,61.20
2022-07-28T02:47:42.420Z,60.90
2022-07-28T02:50:13.935Z,61.10
2022-07-28T02:52:44.667Z,61.40
2022-07-28T02:55:15.695Z,61.00
2022-07-28T02:57:45.759Z,61.40
2022-07-28T03:00:15.476Z,61.30
2022-07-28T03:02:47.122Z,61.40
2022-07-28T03:05:16.823Z,61.50
2022-07-28T03:07:51.219Z,61.50
2022-07-28T03:10:33.783Z,61.80
2022-07-28T03:13:04.333Z,61.90
2022-07-28T03:15:33.286Z,62.40
2022-07-28T03:18:03.851Z,61.80
2022-07-28T03:20:32.389Z,61.80
2022-07-28T03:23:01.049Z,62.00
2022-07-28T03:25:36.194Z,62.10
2022-07-28T03:28:09.387Z,62.10
2022-07-28T03:30:42.852Z,62.10
2022-07-28T03:33:13.468Z,62.20
2022-07-28T03:35:45.688Z,62.40
2022-07-28T03:38:17.907Z,62.50
2022-07-28T03:40:47.653Z,62.30
2022-07-28T03:43:17.806Z,62.40
2022-07-28T03:45:47.872Z,62.60
2022-07-28T03:48:18.050Z,62.70
2022-07-28T03:50:46.350Z,62.70
2022-07-28T03:53:21.375Z,62.80
2022-07-28T03:55:51.542Z,62.60
2022-07-28T03:58:20.475Z,62.90
2022-07-28T04:00:49.549Z,62.90
2022-07-28T04:03:35.101Z,62.90
2022-07-28T04:06:08.294Z,62.90
2022-07-28T04:08:37.291Z,63.00
2022-07-28T04:11:05.829Z,62.80
2022-07-28T04:13:36.735Z,62.80
2022-07-28T04:16:05.787Z,62.80
2022-07-28T04:18:35.671Z,62.80
2022-07-28T04:21:04.359Z,62.50
2022-07-28T04:23:32.668Z,62.50
2022-07-28T04:26:01.087Z,61.30
2022-07-28T04:28:29.523Z,62.50
2022-07-28T04:30:57.979Z,62.60
2022-07-28T04:33:26.485Z,62.70
2022-07-28T04:35:56.232Z,62.10
2022-07-28T04:38:24.592Z,61.90
2022-07-28T04:40:52.971Z,61.30
2022-07-28T04:43:23.033Z,62.70
2022-07-28T04:45:53.389Z,62.40
2022-07-28T04:48:22.168Z,61.90
2022-07-28T04:50:51.482Z,61.40
2022-07-28T04:53:21.355Z,61.40
2022-07-28T04:55:51.743Z,61.50
2022-07-28T04:58:23.114Z,61.30
2022-07-28T05:00:52.711Z,60.70
2022-07-28T05:03:21.625Z,61.80
2022-07-28T05:05:54.543Z,61.40
2022-07-28T05:08:25.844Z,62.80
2022-07-28T05:10:55.696Z,61.80
2022-07-28T05:13:24.098Z,61.70
2022-07-28T05:15:52.576Z,62.20
2022-07-28T05:18:20.907Z,62.00
2022-07-28T05:20:49.231Z,61.80
2022-07-28T05:23:17.769Z,62.30
2022-07-28T05:25:47.891Z,62.10
2022-07-28T05:28:17.088Z,62.00
2022-07-28T05:30:45.519Z,62.00
2022-07-28T05:33:16.067Z,61.40
2022-07-28T05:35:44.979Z,62.50
2022-07-28T05:38:13.650Z,62.40
2022-07-28T05:40:41.953Z,62.20
2022-07-28T05:43:11.673Z,62.00
2022-07-28T05:45:40.009Z,61.80
2022-07-28T05:48:08.631Z,61.80
2022-07-28T05:50:37.143Z,62.30
2022-07-28T05:53:05.460Z,62.20
2022-07-28T05:55:33.842Z,61.80
2022-07-28T05:58:02.161Z,62.10
2022-07-28T06:00:33.712Z,62.30
2022-07-28T06:03:03.097Z,62.10
2022-07-28T06:05:32.710Z,62.20
2022-07-28T06:08:01.504Z,61.90
2022-07-28T06:10:51.822Z,61.80
2022-07-28T06:17:02.786Z,61.90
2022-07-28T06:19:31.190Z,61.80
2022-07-28T06:21:59.530Z,61.80
2022-07-28T06:24:27.957Z,61.80
2022-07-28T06:26:56.267Z,61.80
2022-07-28T06:29:24.708Z,62.10
2022-07-28T06:31:53.096Z,62.00
2022-07-28T06:34:23.059Z,62.00
2022-07-28T06:36:51.479Z,61.90
2022-07-28T06:39:19.858Z,62.00
2022-07-28T06:41:49.246Z,62.00
2022-07-28T06:44:17.914Z,62.00
2022-07-28T06:46:46.729Z,62.00
2022-07-28T06:49:15.483Z,62.20
2022-07-28T06:51:45.526Z,62.20
2022-07-28T06:54:14.117Z,62.10
2022-07-28T06:56:42.642Z,62.10
2022-07-28T06:59:17.938Z,62.00
2022-07-28T07:01:46.416Z,62.80
2022-07-28T07:04:15.026Z,62.00
2022-07-28T07:06:44.999Z,61.80
2022-07-28T07:09:13.312Z,61.80
2022-07-28T07:11:41.632Z,61.80
2022-07-28T07:14:09.930Z,61.60
2022-07-28T07:16:38.353Z,61.50
2022-07-28T07:19:07.055Z,61.60
2022-07-28T07:21:36.718Z,61.40
2022-07-28T07:24:07.151Z,61.40
2022-07-28T07:26:35.467Z,61.40
2022-07-28T07:29:03.809Z,61.40
2022-07-28T07:31:33.430Z,61.40
2022-07-28T07:34:01.856Z,61.40
2022-07-28T07:36:30.377Z,61.40
2022-07-28T07:38:58.754Z,61.40
2022-07-28T07:41:28.509Z,61.50
2022-07-28T07:43:59.130Z,61.40
2022-07-28T07:46:27.511Z,61.50
2022-07-28T07:48:56.003Z,61.60
2022-07-28T07:51:24.348Z,61.60
2022-07-28T07:53:52.698Z,61.60
2022-07-28T07:56:21.024Z,61.80
2022-07-28T07:58:56.495Z,62.00
2022-07-28T08:01:25.340Z,62.10
2022-07-28T08:03:53.909Z,62.00
2022-07-28T08:06:26.682Z,62.20
2022-07-28T08:08:55.378Z,62.40
2022-07-28T08:11:23.798Z,62.50
2022-07-28T08:13:53.509Z,62.50
2022-07-28T08:16:21.915Z,63.10
2022-07-28T08:18:50.578Z,62.90
2022-07-28T08:21:18.934Z,62.90
2022-07-28T08:23:48.025Z,63.10
2022-07-28T08:26:16.320Z,62.80
2022-07-28T08:28:44.705Z,62.80
2022-07-28T08:31:17.240Z,62.90
2022-07-28T08:33:53.851Z,62.80
2022-07-28T08:36:23.530Z,62.80
2022-07-28T08:38:51.930Z,62.60
2022-07-28T08:41:33.634Z,62.50
2022-07-28T08:44:04.990Z,62.20
2022-07-28T08:46:37.505Z,62.20
2022-07-28T08:49:09.551Z,62.10
2022-07-28T08:51:38.987Z,62.10
2022-07-28T08:54:07.990Z,62.00
2022-07-28T08:56:41.331Z,62.00
2022-07-28T08:59:16.894Z,61.90
2022-07-28T09:01:48.050Z,61.90
2022-07-28T09:04:17.661Z,61.90
2022-07-28T09:06:46.626Z,61.70
2022-07-28T09:09:15.000Z,61.50
2022-07-28T09:11:43.315Z,61.50
2022-07-28T09:14:12.038Z,61.50
2022-07-28T09:16:40.561Z,61.20
2022-07-28T09:19:10.398Z,61.10
2022-07-28T09:21:39.077Z,61.00
2022-07-28T09:24:08.348Z,60.80
2022-07-28T09:26:36.698Z,60.90
2022-07-28T09:29:08.678Z,60.90
2022-07-28T09:31:56.940Z,60.80
2022-07-28T09:34:27.337Z,61.00
2022-07-28T09:36:55.769Z,60.80
2022-07-28T09:39:34.654Z,60.90
2022-07-28T09:42:03.287Z,60.70
2022-07-28T09:44:31.564Z,60.90
2022-07-28T09:47:00.038Z,60.70
2022-07-28T09:49:44.463Z,60.70
2022-07-28T09:52:13.182Z,60.70
2022-07-28T09:55:01.352Z,60.60
2022-07-28T09:57:30.909Z,60.70
2022-07-28T10:00:02.295Z,60.60
2022-07-28T10:02:32.687Z,60.60
2022-07-28T10:05:02.777Z,60.40
2022-07-28T10:07:31.474Z,60.20
2022-07-28T10:10:01.814Z,60.20
2022-07-28T10:12:31.825Z,60.30
2022-07-28T10:15:01.671Z,60.00
2022-07-28T10:17:31.950Z,60.00
2022-07-28T10:20:03.173Z,60.00
2022-07-28T10:22:39.491Z,59.90
2022-07-28T10:25:13.074Z,59.70
2022-07-28T10:27:43.180Z,59.70
2022-07-28T10:30:14.004Z,59.50
2022-07-28T10:32:44.702Z,59.50
2022-07-28T10:35:16.792Z,59.40
2022-07-28T10:37:55.574Z,59.40
2022-07-28T10:40:28.380Z,59.30
2022-07-28T10:42:57.890Z,59.10
2022-07-28T10:45:48.021Z,59.20
2022-07-28T10:48:16.808Z,59.10
2022-07-28T10:50:46.616Z,58.90
2022-07-28T10:53:21.960Z,59.20
2022-07-28T10:55:59.046Z,58.90
2022-07-28T10:58:40.399Z,58.70
2022-07-28T11:01:17.038Z,58.80
2022-07-28T11:03:55.294Z,58.40
2022-07-28T11:06:33.540Z,58.30
2022-07-28T11:09:23.374Z,58.30
2022-07-28T11:11:52.996Z,58.90
2022-07-28T11:14:34.065Z,58.20
2022-07-28T11:17:17.850Z,58.00
2022-07-28T11:22:47.464Z,57.90
2022-07-28T11:25:18.994Z,57.80
2022-07-28T11:28:03.382Z,57.90
2022-07-28T11:30:52.451Z,57.70
2022-07-28T11:33:21.494Z,57.70
2022-07-28T11:35:57.582Z,57.50
2022-07-28T11:38:27.904Z,57.40
2022-07-28T11:40:57.503Z,57.30
2022-07-28T11:43:37.701Z,57.20
2022-07-28T11:46:38.462Z,57.20
2022-07-28T11:49:25.143Z,57.20
2022-07-28T11:52:20.966Z,57.10
2022-07-28T11:54:53.566Z,57.00
2022-07-28T11:57:24.498Z,57.00
2022-07-28T12:00:03.842Z,56.90
2022-07-28T12:02:33.812Z,56.90
2022-07-28T12:05:13.819Z,57.00
2022-07-28T12:07:44.816Z,56.90
2022-07-28T12:13:29.175Z,56.80
2022-07-28T12:15:57.972Z,56.90
2022-07-28T12:18:26.355Z,56.90
2022-07-28T12:20:55.433Z,56.90
2022-07-28T12:23:39.026Z,56.90
2022-07-28T12:26:31.771Z,56.80
2022-07-28T12:29:00.993Z,56.70
2022-07-28T12:31:33.287Z,56.60
2022-07-28T12:34:02.032Z,56.60
2022-07-28T12:36:31.173Z,56.80
2022-07-28T12:39:00.381Z,56.70
2022-07-28T12:41:34.745Z,56.70
2022-07-28T12:44:06.063Z,57.20
2022-07-28T12:46:34.651Z,56.70
2022-07-28T12:49:03.497Z,56.60
2022-07-28T12:51:33.239Z,56.50
2022-07-28T12:54:01.658Z,56.50
2022-07-28T12:56:30.260Z,56.60
2022-07-28T12:59:10.898Z,56.40
2022-07-28T13:01:47.018Z,56.30
2022-07-28T13:04:15.719Z,56.40
2022-07-28T13:06:44.347Z,56.30
2022-07-28T13:09:23.939Z,56.10
2022-07-28T13:12:01.569Z,56.10
2022-07-28T13:14:43.866Z,56.10
2022-07-28T13:17:12.916Z,56.10
2022-07-28T13:19:41.248Z,56.00
2022-07-28T13:22:09.626Z,55.90
2022-07-28T13:24:38.135Z,55.90
2022-07-28T13:27:07.350Z,55.80
2022-07-28T13:29:36.640Z,55.80
2022-07-28T13:32:07.036Z,55.70
2022-07-28T13:34:35.609Z,55.80
2022-07-28T13:37:03.948Z,55.80
2022-07-28T13:39:32.297Z,55.70
2022-07-28T13:42:00.753Z,55.70
2022-07-28T13:44:35.147Z,55.60
2022-07-28T13:47:06.610Z,55.70
2022-07-28T13:49:37.508Z,55.70
2022-07-28T13:52:12.971Z,55.70
2022-07-28T13:54:41.725Z,55.70
2022-07-28T13:57:10.664Z,55.80
2022-07-28T13:59:39.102Z,55.90
2022-07-28T14:02:15.309Z,56.40
2022-07-28T14:04:46.127Z,55.60
2022-07-28T14:07:20.361Z,55.60
2022-07-28T14:09:50.243Z,55.60
2022-07-28T14:12:18.690Z,55.50
2022-07-28T14:14:48.292Z,55.70
2022-07-28T14:20:12.347Z,55.50
2022-07-28T14:22:40.715Z,55.50
2022-07-28T14:25:09.689Z,55.50
2022-07-28T14:27:38.053Z,55.50
2022-07-28T14:30:08.014Z,56.20
2022-07-28T14:32:38.967Z,55.30
2022-07-28T14:35:08.146Z,55.20
2022-07-28T14:38:11.214Z,55.90
2022-07-28T14:40:25.282Z,55.20
2022-07-28T14:42:53.630Z,55.20
2022-07-28T14:45:22.133Z,55.20
2022-07-28T14:47:52.613Z,55.10
2022-07-28T14:50:21.096Z,55.10
2022-07-28T14:52:49.559Z,55.20
2022-07-28T14:55:18.263Z,55.20
2022-07-28T14:57:53.978Z,55.20
2022-07-28T15:00:24.646Z,55.30
2022-07-28T15:02:57.462Z,55.10
2022-07-28T15:05:26.083Z,55.10
2022-07-28T15:07:54.498Z,55.10
2022-07-28T15:10:22.873Z,55.10
2022-07-28T15:12:52.121Z,55.10
2022-07-28T15:15:26.508Z,55.00
2022-07-28T15:17:57.567Z,55.00
2022-07-28T15:20:26.094Z,55.10
2022-07-28T15:22:56.030Z,55.10
2022-07-28T15:25:24.534Z,55.00
2022-07-28T15:27:52.855Z,55.00
2022-07-28T15:30:21.306Z,55.00
2022-07-28T15:32:56.844Z,55.10
2022-07-28T15:35:27.383Z,55.00
2022-07-28T15:37:56.474Z,55.00
2022-07-28T15:40:25.352Z,54.90
2022-07-28T15:42:53.731Z,55.00
2022-07-28T15:45:22.056Z,54.90
2022-07-28T15:47:50.396Z,54.90
2022-07-28T15:50:18.813Z,54.90
2022-07-28T15:52:48.552Z,54.90
2022-07-28T15:55:16.915Z,54.80
2022-07-28T15:57:45.369Z,54.80
2022-07-28T16:00:14.407Z,54.90
2022-07-28T16:02:42.844Z,54.90
2022-07-28T16:05:11.249Z,54.90
2022-07-28T16:07:43.221Z,54.70
2022-07-28T16:10:14.881Z,54.80
2022-07-28T16:12:43.261Z,54.70
2022-07-28T16:15:11.768Z,54.70
2022-07-28T16:17:41.813Z,54.70
2022-07-28T16:20:11.334Z,54.70
2022-07-28T16:22:40.888Z,54.60
2022-07-28T16:25:15.846Z,54.60
2022-07-28T16:27:46.344Z,54.60
2022-07-28T16:30:15.701Z,54.60
2022-07-28T16:32:44.374Z,54.60
2022-07-28T16:35:14.107Z,54.40
2022-07-28T16:37:43.073Z,54.50
2022-07-28T16:40:12.836Z,54.60
2022-07-28T16:42:41.203Z,54.50
2022-07-28T16:45:12.224Z,54.40
2022-07-28T16:47:40.546Z,54.40
2022-07-28T16:50:09.734Z,54.40
2022-07-28T16:52:38.059Z,54.40
2022-07-28T16:55:13.895Z,54.40
2022-07-28T16:57:43.637Z,54.40
2022-07-28T17:00:16.164Z,54.20
2022-07-28T17:02:44.547Z,54.20
2022-07-28T17:05:14.364Z,54.20
2022-07-28T17:07:45.639Z,54.30
2022-07-28T17:10:20.363Z,54.20
2022-07-28T17:12:50.531Z,54.30
2022-07-28T17:15:22.779Z,54.30
2022-07-28T17:17:51.911Z,54.20
2022-07-28T17:20:21.143Z,54.20
2022-07-28T17:22:49.697Z,54.10
2022-07-28T17:28:07.409Z,54.20
2022-07-28T17:30:38.447Z,54.00
2022-07-28T17:33:08.910Z,54.10
2022-07-28T17:35:38.716Z,54.20
2022-07-28T17:38:09.884Z,54.20
2022-07-28T17:40:40.180Z,54.20
2022-07-28T17:43:11.848Z,54.40
2022-07-28T17:45:41.610Z,54.20
2022-07-28T17:48:09.938Z,54.30
2022-07-28T17:50:38.295Z,54.30
2022-07-28T17:53:06.664Z,54.40
2022-07-28T17:55:57.763Z,54.40
2022-07-28T17:58:32.257Z,54.50
2022-07-28T18:01:11.147Z,54.60
2022-07-28T18:03:57.934Z,54.60
2022-07-28T18:06:34.101Z,54.60
2022-07-28T18:09:06.571Z,54.60
2022-07-28T18:11:55.796Z,54.50
2022-07-28T18:14:26.391Z,54.60
2022-07-28T18:16:56.227Z,54.60
2022-07-28T18:19:24.794Z,54.70
2022-07-28T18:21:53.394Z,54.60
2022-07-28T18:24:22.554Z,54.70
2022-07-28T18:26:51.554Z,54.70
2022-07-28T18:29:21.211Z,54.70
2022-07-28T18:31:50.876Z,54.70
2022-07-28T18:34:23.616Z,54.80
2022-07-28T18:36:53.619Z,54.70
2022-07-28T18:39:22.268Z,54.70
2022-07-28T18:41:50.599Z,54.80
2022-07-28T18:44:19.992Z,54.80
2022-07-28T18:46:48.941Z,54.80
2022-07-28T18:49:17.424Z,55.30
2022-07-28T18:51:47.166Z,54.60
2022-07-28T18:54:21.419Z,54.80
2022-07-28T18:56:55.271Z,54.80
2022-07-28T18:59:24.394Z,54.70
2022-07-28T19:01:52.951Z,54.60
2022-07-28T19:04:21.378Z,54.60
2022-07-28T19:06:51.198Z,55.20
2022-07-28T19:09:19.655Z,54.50
2022-07-28T19:11:47.994Z,54.50
2022-07-28T19:14:16.881Z,54.40
2022-07-28T19:16:45.638Z,54.30
2022-07-28T19:19:14.562Z,54.30
2022-07-28T19:21:43.850Z,54.40
2022-07-28T19:24:14.449Z,54.30
2022-07-28T19:26:44.718Z,54.50
2022-07-28T19:29:13.534Z,54.20
2022-07-28T19:31:42.400Z,54.30
2022-07-28T19:34:11.041Z,54.20
2022-07-28T19:40:29.775Z,54.10
2022-07-28T19:42:58.167Z,54.00
2022-07-28T19:45:26.948Z,54.00
2022-07-28T19:47:55.761Z,53.90
2022-07-28T19:50:24.620Z,53.90
2022-07-28T19:52:52.955Z,53.90
2022-07-28T19:55:21.941Z,53.80
2022-07-28T19:57:51.992Z,54.10
2022-07-28T20:00:20.384Z,53.90
2022-07-28T20:02:48.790Z,53.90
2022-07-28T20:05:17.377Z,53.90
2022-07-28T20:07:46.702Z,54.00
2022-07-28T20:10:15.175Z,53.90
2022-07-28T20:12:45.438Z,53.80
2022-07-28T20:15:15.662Z,53.80
2022-07-28T20:17:44.200Z,53.90
2022-07-28T20:20:14.476Z,53.90
2022-07-28T20:22:43.232Z,53.80
2022-07-28T20:25:13.185Z,53.80
2022-07-28T20:27:42.922Z,53.80
2022-07-28T20:30:12.688Z,53.70
2022-07-28T20:32:44.247Z,53.70
2022-07-28T20:35:13.639Z,53.70
2022-07-28T20:37:41.928Z,53.80
2022-07-28T20:40:11.313Z,53.70
2022-07-28T20:42:39.853Z,53.80
2022-07-28T20:45:09.095Z,53.80
2022-07-28T20:47:37.474Z,53.80
2022-07-28T20:50:08.297Z,53.70
2022-07-28T20:52:36.637Z,53.70
2022-07-28T20:55:05.498Z,53.90
2022-07-28T20:57:33.862Z,53.80
2022-07-28T21:00:04.893Z,53.80
2022-07-28T21:02:33.392Z,53.80
2022-07-28T21:05:01.969Z,54.00
2022-07-28T21:08:04.599Z,53.90
2022-07-28T21:10:20.209Z,54.20
2022-07-28T21:12:48.778Z,54.00
2022-07-28T21:15:17.163Z,53.90
2022-07-28T21:17:45.466Z,54.00
2022-07-28T21:20:14.391Z,54.10
2022-07-28T21:22:44.127Z,53.90
2022-07-28T21:25:12.591Z,53.90
2022-07-28T21:27:58.080Z,53.90
2022-07-28T21:30:28.204Z,53.80
2022-07-28T21:32:56.966Z,54.10
2022-07-28T21:35:25.760Z,54.10
2022-07-28T21:37:55.465Z,54.60
2022-07-28T21:40:24.265Z,54.60
2022-07-28T21:42:52.831Z,54.00
2022-07-28T21:45:21.515Z,54.00
2022-07-28T21:47:50.058Z,54.10
2022-07-28T21:50:18.430Z,54.00
2022-07-28T21:52:46.799Z,54.30
2022-07-28T21:55:16.546Z,54.40
2022-07-28T21:57:44.918Z,54.50
2022-07-28T22:00:14.598Z,54.70
2022-07-28T22:02:42.949Z,54.90
2022-07-28T22:05:11.759Z,54.90
2022-07-28T22:07:40.130Z,54.90
2022-07-28T22:10:09.411Z,55.10
2022-07-28T22:12:39.367Z,55.00
2022-07-28T22:15:08.726Z,55.00
2022-07-28T22:17:37.066Z,55.00
2022-07-28T22:20:06.306Z,55.00
2022-07-28T22:22:34.898Z,55.50
2022-07-28T22:25:03.281Z,55.20
2022-07-28T22:27:31.620Z,55.20
2022-07-28T22:30:01.403Z,55.30
2022-07-28T22:32:29.771Z,55.40
2022-07-28T22:34:58.722Z,55.40
2022-07-28T22:37:27.164Z,55.40
2022-07-28T22:39:55.534Z,55.40
2022-07-28T22:42:23.907Z,55.40
2022-07-28T22:44:52.216Z,55.40
2022-07-28T22:47:22.269Z,55.60
2022-07-28T22:49:53.769Z,55.60
2022-07-28T22:52:26.312Z,55.90
2022-07-28T22:54:55.383Z,55.80
2022-07-28T22:57:26.119Z,55.80
2022-07-28T22:59:55.010Z,55.80
2022-07-28T23:02:27.040Z,55.80
2022-07-28T23:04:55.429Z,55.90
2022-07-28T23:07:35.258Z,55.90
2022-07-28T23:10:12.704Z,55.90
2022-07-28T23:12:41.038Z,56.00
2022-07-28T23:15:10.147Z,56.00
2022-07-28T23:17:39.844Z,56.00
2022-07-28T23:20:08.815Z,55.90
2022-07-28T23:22:38.112Z,56.10
2022-07-28T23:25:07.194Z,56.10
2022-07-28T23:27:35.574Z,56.10
2022-07-28T23:30:04.263Z,56.20
2022-07-28T23:32:32.689Z,56.20
2022-07-28T23:35:02.433Z,56.20
2022-07-28T23:37:34.502Z,56.30
2022-07-28T23:40:02.968Z,56.90
2022-07-28T23:42:31.327Z,56.30
2022-07-28T23:44:59.707Z,56.50
2022-07-28T23:47:28.013Z,56.40
2022-07-28T23:49:56.368Z,56.40
2022-07-28T23:52:26.078Z,56.50
2022-07-28T23:54:54.629Z,56.50
2022-07-28T23:57:23.088Z,56.60
2022-07-28T23:59:53.232Z,56.60
